Nichiryu Maru — JG5632 — position and weather

sailwx.info

Track history (hours):
 
Tides and Currents Weather Stations Pressure Air Temp Water Temp Dewpoint Dewpoint Depression Visibility Wind Speed Wind Dir Waves Ship Positions

Nichiryu Maru

Last reported at 2015-Jun-29 15:08 UTC. Time now 2015-Jul-01 19:18 UTC.
Position N 34°16' E 138°15'.

Length 158 m; draft 6.5 m.

Type: Cargo ship. MMSI: 43100939.

Date/timePositionNaut miles runAvg speedWind from/ knotsBaromVisibWave heightAir tempDewpointWater temp
2015-Jun-29 15:08N 34°16' E 138°15'7018.1
2015-Jun-29 11:16N 34°56' E 139°25'1318.2
2015-Jun-29 10:34N 35°04' E 139°38'1414.3
2015-Jun-29 09:34N 35°16' E 139°45'6 5.5
2015-Jun-29 08:31N 35°19' E 139°39'0 0.0
2015-Jun-29 07:28N 35°19' E 139°39'0 0.0
2015-Jun-29 06:31N 35°19' E 139°39'0 0.0
2015-Jun-29 05:28N 35°19' E 139°39'0 0.0
2015-Jun-29 04:31N 35°19' E 139°39'0 0.0
2015-Jun-29 03:28N 35°19' E 139°39'0 0.0
2015-Jun-29 02:31N 35°19' E 139°39'0 0.0
2015-Jun-29 01:31N 35°19' E 139°39'0 0.0
2015-Jun-29 00:31N 35°19' E 139°39'0 0.0
2015-Jun-28 23:28N 35°19' E 139°39'2 1.6
2015-Jun-28 22:31N 35°20' E 139°40'0 0.0
2015-Jun-28 21:31N 35°20' E 139°40'0 0.0
2015-Jun-28 20:31N 35°20' E 139°40'0 0.0
2015-Jun-28 19:31N 35°20' E 139°40'0 0.0
2015-Jun-28 18:31N 35°20' E 139°40'0 0.0
2015-Jun-28 17:31N 35°20' E 139°40'0 0.0
2015-Jun-28 16:31N 35°20' E 139°40'0 0.0
2015-Jun-28 15:31N 35°20' E 139°40'0 0.0
2015-Jun-28 14:31N 35°20' E 139°40'0 0.1
2015-Jun-28 13:31N 35°20' E 139°40'2 2.3
2015-Jun-28 12:34N 35°19' E 139°43'1313.2
2015-Jun-28 11:33N 35°06' E 139°43'  
2015-Jun-26 07:33N 34°37' E 135°01'1111.1
2015-Jun-26 06:33N 34°41' E 135°14'0 0.3
2015-Jun-26 05:28N 34°41' E 135°13'0 0.0
2015-Jun-26 04:22N 34°41' E 135°13'0 0.0
2015-Jun-26 03:33N 34°41' E 135°13'7 6.9
2015-Jun-26 02:33N 34°34' E 135°14'1817.2
2015-Jun-26 01:32N 34°20' E 135°01'1717.5
2015-Jun-26 00:33N 34°03' E 134°60'22517.1
2015-Jun-25 11:24N 34°56' E 139°25'1619.7
2015-Jun-25 10:33N 35°06' E 139°41'1312.7
2015-Jun-25 09:34N 35°18' E 139°43'4 3.6
2015-Jun-25 08:32N 35°19' E 139°39'0 0.0
2015-Jun-25 07:32N 35°19' E 139°39'0 0.0
2015-Jun-25 06:32N 35°19' E 139°39'0 0.0
2015-Jun-25 05:32N 35°19' E 139°39'0 0.0
2015-Jun-25 04:33N 35°19' E 139°39'5 4.5
2015-Jun-25 03:34N 35°18' E 139°44'1313.1
2015-Jun-25 02:33N 35°05' E 139°42'  
2015-Jun-22 14:31N 34°26' E 138°30'5317.9
2015-Jun-22 11:32N 34°56' E 139°24'1818.2
2015-Jun-22 10:33N 35°06' E 139°42'1212.5
2015-Jun-22 09:33N 35°19' E 139°43'3 3.4
2015-Jun-22 08:32N 35°19' E 139°39'0 0.0
2015-Jun-22 07:29N 35°19' E 139°39'0 0.0
2015-Jun-22 06:32N 35°19' E 139°39'0 0.0
2015-Jun-22 05:32N 35°19' E 139°39'0 0.0
2015-Jun-22 04:29N 35°19' E 139°39'0 0.0
2015-Jun-22 03:32N 35°19' E 139°39'0 0.0
2015-Jun-22 02:32N 35°19' E 139°39'0 0.0
2015-Jun-22 01:32N 35°19' E 139°39'0 0.0
2015-Jun-22 00:29N 35°19' E 139°39'0 0.0
2015-Jun-21 23:34N 35°19' E 139°39'2 1.9
2015-Jun-21 22:34N 35°19' E 139°41'0 0.0
2015-Jun-21 21:31N 35°19' E 139°41'0 0.0
2015-Jun-21 20:31N 35°19' E 139°41'0 0.0
2015-Jun-21 19:31N 35°19' E 139°41'0 0.0
2015-Jun-21 18:31N 35°19' E 139°41'0 0.0
2015-Jun-21 17:31N 35°19' E 139°41'0 0.0
2015-Jun-21 16:31N 35°19' E 139°41'0 0.0
2015-Jun-21 15:31N 35°19' E 139°41'0 0.0
2015-Jun-21 14:31N 35°19' E 139°41'0 0.1
2015-Jun-21 13:31N 35°19' E 139°41'0 0.1
2015-Jun-21 12:28N 35°19' E 139°41'7 7.3
2015-Jun-21 11:34N 35°14' E 139°47'1818.0
2015-Jun-21 10:33N 34°59' E 139°36'6218.8
2015-Jun-21 07:17N 34°32' E 138°28'  
Track history (hours):
 
Tides and Currents Weather Stations Pressure Air Temp Water Temp Dewpoint Dewpoint Depression Visibility Wind Speed Wind Dir Waves Ship Positions

Nichiryu Maru

Last reported at 2015-Jun-29 15:08 UTC. Time now 2015-Jul-01 19:18 UTC.
Position N 34°16' E 138°15'.

Length 158 m; draft 6.5 m.

Type: Cargo ship. MMSI: 43100939.

Date/timePositionNaut miles runAvg speedWind from/ knotsBaromVisibWave heightAir tempDewpointWater temp
2015-Jun-29 15:08N 34°16' E 138°15'7018.1
2015-Jun-29 11:16N 34°56' E 139°25'1318.2
2015-Jun-29 10:34N 35°04' E 139°38'1414.3
2015-Jun-29 09:34N 35°16' E 139°45'6 5.5
2015-Jun-29 08:31N 35°19' E 139°39'0 0.0
2015-Jun-29 07:28N 35°19' E 139°39'0 0.0
2015-Jun-29 06:31N 35°19' E 139°39'0 0.0
2015-Jun-29 05:28N 35°19' E 139°39'0 0.0
2015-Jun-29 04:31N 35°19' E 139°39'0 0.0
2015-Jun-29 03:28N 35°19' E 139°39'0 0.0
2015-Jun-29 02:31N 35°19' E 139°39'0 0.0
2015-Jun-29 01:31N 35°19' E 139°39'0 0.0
2015-Jun-29 00:31N 35°19' E 139°39'0 0.0
2015-Jun-28 23:28N 35°19' E 139°39'2 1.6
2015-Jun-28 22:31N 35°20' E 139°40'0 0.0
2015-Jun-28 21:31N 35°20' E 139°40'0 0.0
2015-Jun-28 20:31N 35°20' E 139°40'0 0.0
2015-Jun-28 19:31N 35°20' E 139°40'0 0.0
2015-Jun-28 18:31N 35°20' E 139°40'0 0.0
2015-Jun-28 17:31N 35°20' E 139°40'0 0.0
2015-Jun-28 16:31N 35°20' E 139°40'0 0.0
2015-Jun-28 15:31N 35°20' E 139°40'0 0.0
2015-Jun-28 14:31N 35°20' E 139°40'0 0.1
2015-Jun-28 13:31N 35°20' E 139°40'2 2.3
2015-Jun-28 12:34N 35°19' E 139°43'1313.2
2015-Jun-28 11:33N 35°06' E 139°43'  
2015-Jun-26 07:33N 34°37' E 135°01'1111.1
2015-Jun-26 06:33N 34°41' E 135°14'0 0.3
2015-Jun-26 05:28N 34°41' E 135°13'0 0.0
2015-Jun-26 04:22N 34°41' E 135°13'0 0.0
2015-Jun-26 03:33N 34°41' E 135°13'7 6.9
2015-Jun-26 02:33N 34°34' E 135°14'1817.2
2015-Jun-26 01:32N 34°20' E 135°01'1717.5
2015-Jun-26 00:33N 34°03' E 134°60'22517.1
2015-Jun-25 11:24N 34°56' E 139°25'1619.7
2015-Jun-25 10:33N 35°06' E 139°41'1312.7
2015-Jun-25 09:34N 35°18' E 139°43'4 3.6
2015-Jun-25 08:32N 35°19' E 139°39'0 0.0
2015-Jun-25 07:32N 35°19' E 139°39'0 0.0
2015-Jun-25 06:32N 35°19' E 139°39'0 0.0
2015-Jun-25 05:32N 35°19' E 139°39'0 0.0
2015-Jun-25 04:33N 35°19' E 139°39'5 4.5
2015-Jun-25 03:34N 35°18' E 139°44'1313.1
2015-Jun-25 02:33N 35°05' E 139°42'  
2015-Jun-22 14:31N 34°26' E 138°30'5317.9
2015-Jun-22 11:32N 34°56' E 139°24'1818.2
2015-Jun-22 10:33N 35°06' E 139°42'1212.5
2015-Jun-22 09:33N 35°19' E 139°43'3 3.4
2015-Jun-22 08:32N 35°19' E 139°39'0 0.0
2015-Jun-22 07:29N 35°19' E 139°39'0 0.0
2015-Jun-22 06:32N 35°19' E 139°39'0 0.0
2015-Jun-22 05:32N 35°19' E 139°39'0 0.0
2015-Jun-22 04:29N 35°19' E 139°39'0 0.0
2015-Jun-22 03:32N 35°19' E 139°39'0 0.0
2015-Jun-22 02:32N 35°19' E 139°39'0 0.0
2015-Jun-22 01:32N 35°19' E 139°39'0 0.0
2015-Jun-22 00:29N 35°19' E 139°39'0 0.0
2015-Jun-21 23:34N 35°19' E 139°39'2 1.9
2015-Jun-21 22:34N 35°19' E 139°41'0 0.0
2015-Jun-21 21:31N 35°19' E 139°41'0 0.0
2015-Jun-21 20:31N 35°19' E 139°41'0 0.0
2015-Jun-21 19:31N 35°19' E 139°41'0 0.0
2015-Jun-21 18:31N 35°19' E 139°41'0 0.0
2015-Jun-21 17:31N 35°19' E 139°41'0 0.0
2015-Jun-21 16:31N 35°19' E 139°41'0 0.0
2015-Jun-21 15:31N 35°19' E 139°41'0 0.0
2015-Jun-21 14:31N 35°19' E 139°41'0 0.1
2015-Jun-21 13:31N 35°19' E 139°41'0 0.1
2015-Jun-21 12:28N 35°19' E 139°41'7 7.3
2015-Jun-21 11:34N 35°14' E 139°47'1818.0
2015-Jun-21 10:33N 34°59' E 139°36'6218.8
2015-Jun-21 07:17N 34°32' E 138°28'  

Dump ship's entire track history